Time;durP1;ratioP1;P1;durP2;ratioP2;P2;SDS_P1;SDS_P2;PMS_P1;PMS_P2;Temp;Humidity;BMP_temperature;BMP_pressure;BME280_temperature;BME280_humidity;BME280_pressure;Samples;Min_cycle;Max_cycle;Signal;HPM_P1;HPM_P2
2022/05/08 02:24:01;;;;;;;18.67;5.88;;;;;;;12.75;38.58;99919.75;5643727;23;20043;-82
2022/05/08 02:26:28;;;;;;;17.10;5.85;;;;;;;12.83;38.85;99935.47;4999261;28;20565;-87
2022/05/08 02:28:54;;;;;;;12.80;6.05;;;;;;;12.77;38.78;99926.56;4987904;28;20042;-94
2022/05/08 02:31:21;;;;;;;24.33;5.90;;;;;;;12.85;38.50;99927.75;5002287;28;20042;-86
2022/05/08 02:33:47;;;;;;;9.85;5.32;;;;;;;12.55;38.65;99894.47;4982142;28;20499;-89
2022/05/08 02:36:16;;;;;;;11.57;5.35;;;;;;;12.76;38.42;99913.97;4997519;28;20489;-90
2022/05/08 02:38:42;;;;;;;17.20;6.38;;;;;;;12.71;38.61;99905.84;4998041;28;20042;-88
2022/05/08 02:41:08;;;;;;;15.20;5.63;;;;;;;12.70;38.73;99904.25;4963326;28;20045;-86
2022/05/08 02:43:34;;;;;;;15.13;5.67;;;;;;;12.88;38.73;99927.09;4978104;28;20045;-88
2022/05/08 02:46:02;;;;;;;17.00;6.07;;;;;;;12.72;38.60;99895.72;4947084;28;20112;-85
2022/05/08 02:48:30;;;;;;;20.90;5.70;;;;;;;12.72;38.73;99899.25;5000425;28;20097;-90
2022/05/08 02:50:58;;;;;;;14.88;5.45;;;;;;;12.89;38.59;99926.81;4982247;28;20046;-90
2022/05/08 02:53:24;;;;;;;16.60;5.13;;;;;;;12.64;39.34;99883.53;4978851;28;20061;-86
2022/05/08 02:58:35;;;;;;;20.00;5.60;;;;;;;12.66;39.38;99895.81;4981925;28;20045;-88
2022/05/08 03:01:06;;;;;;;12.77;5.40;;;;;;;12.82;39.21;99912.72;4965653;28;20141;-87
2022/05/08 03:03:42;;;;;;;15.80;5.72;;;;;;;13.03;38.59;99934.94;5004898;28;20049;-92
2022/05/08 03:06:08;;;;;;;15.90;5.68;;;;;;;12.96;39.22;99931.03;4997341;28;20053;-85
2022/05/08 03:08:35;;;;;;;20.37;5.83;;;;;;;13.07;38.61;99949.66;4966160;28;20042;-90
2022/05/08 03:13:45;;;;;;;11.70;4.97;;;;;;;12.86;38.19;99901.94;4999057;28;20038;-87
2022/05/08 03:16:15;;;;;;;13.13;4.80;;;;;;;13.15;38.73;99942.63;4964568;28;20662;-85
2022/05/08 03:18:41;;;;;;;15.10;5.22;;;;;;;13.13;38.30;99936.63;4998618;28;20106;-88
2022/05/08 03:21:09;;;;;;;25.63;6.63;;;;;;;13.17;38.46;99943.91;5000025;28;20106;-87
2022/05/08 03:23:38;;;;;;;14.35;5.82;;;;;;;12.88;38.29;99895.00;4950848;28;20058;-88
2022/05/08 03:26:07;;;;;;;15.63;5.47;;;;;;;13.17;38.64;99937.59;4968173;28;20427;-89
2022/05/08 03:28:35;;;;;;;14.27;5.35;;;;;;;12.94;38.45;99904.69;4950275;28;20045;-88
2022/05/08 03:31:02;;;;;;;15.93;6.10;;;;;;;13.19;38.27;99948.28;4968232;28;20073;-88
2022/05/08 03:33:33;;;;;;;20.50;5.95;;;;;;;13.10;38.47;99931.75;4939341;28;20042;-87
2022/05/08 03:36:00;;;;;;;11.80;5.20;;;;;;;13.18;38.26;99942.00;4951338;28;20056;-88
2022/05/08 03:38:27;;;;;;;13.65;5.45;;;;;;;13.11;38.56;99928.72;4952001;28;20140;-92
2022/05/08 03:43:43;;;;;;;21.92;5.28;;;;;;;13.10;38.58;99931.75;4907926;29;20544;-88
2022/05/08 03:46:09;;;;;;;27.27;5.93;;;;;;;13.14;38.83;99941.81;4887163;29;20131;-84
2022/05/08 03:48:40;;;;;;;20.63;6.05;;;;;;;12.98;38.63;99924.13;4906475;29;20104;-84
2022/05/08 03:51:08;;;;;;;23.38;6.15;;;;;;;13.17;38.12;99951.34;4878056;29;20437;-83
2022/05/08 03:53:37;;;;;;;11.25;5.78;;;;;;;13.05;38.20;99916.25;4908975;29;20051;-85
2022/05/08 03:56:03;;;;;;;11.35;5.22;;;;;;;13.23;38.20;99933.59;4919478;29;20556;-83
2022/05/08 03:58:31;;;;;;;11.90;5.20;;;;;;;13.19;37.90;99923.59;4916233;29;20572;-88
2022/05/08 04:00:57;;;;;;;14.10;5.63;;;;;;;13.27;38.47;99923.63;4919682;29;20056;-84
2022/05/08 04:03:23;;;;;;;19.92;5.90;;;;;;;13.18;38.49;99917.28;4903013;29;20044;-85
2022/05/08 04:05:49;;;;;;;14.40;5.97;;;;;;;13.32;38.68;99930.94;4902351;29;20645;-84
2022/05/08 04:08:15;;;;;;;14.10;5.85;;;;;;;13.38;38.49;99935.97;4918202;29;20059;-84
2022/05/08 04:10:43;;;;;;;19.42;5.97;;;;;;;13.35;38.56;99919.31;4885045;29;20044;-83
2022/05/08 04:13:09;;;;;;;13.70;6.50;;;;;;;13.48;38.62;99923.09;4916488;29;20063;-85
2022/05/08 04:18:20;;;;;;;15.20;5.43;;;;;;;13.56;37.86;99908.56;4910791;29;20063;-86
2022/05/08 04:20:46;;;;;;;13.95;5.60;;;;;;;13.55;37.77;99899.53;4935905;28;20090;-85
2022/05/08 04:26:00;;;;;;;17.80;5.80;;;;;;;13.74;38.14;99925.91;4989445;28;20049;-85
2022/05/08 04:28:26;;;;;;;10.80;5.70;;;;;;;13.50;38.19;99891.41;4965214;28;20103;-86
2022/05/08 04:30:52;;;;;;;16.27;6.28;;;;;;;13.55;38.07;99901.47;4967614;28;20511;-84
2022/05/08 04:33:20;;;;;;;14.32;5.93;;;;;;;13.67;38.42;99926.38;4982492;28;20221;-85
2022/05/08 04:35:48;;;;;;;15.00;6.03;;;;;;;13.61;38.44;99922.19;4986338;28;20046;-84
2022/05/08 04:38:15;;;;;;;12.77;5.85;;;;;;;13.46;38.41;99903.38;4969705;28;20066;-84
2022/05/08 04:40:42;;;;;;;12.75;6.47;;;;;;;13.52;38.55;99929.56;4950482;28;20053;-84
2022/05/08 04:43:10;;;;;;;16.75;6.60;;;;;;;13.40;38.46;99898.00;4967221;28;20407;-83
2022/05/08 04:45:37;;;;;;;16.58;7.13;;;;;;;13.66;39.01;99921.22;4966852;28;20049;-84
2022/05/08 04:48:03;;;;;;;16.25;7.00;;;;;;;13.77;38.25;99915.09;4962167;28;20070;-82
2022/05/08 04:50:30;;;;;;;15.63;6.15;;;;;;;13.93;38.26;99911.91;4977111;28;20113;-81
2022/05/08 04:52:56;;;;;;;34.55;6.97;;;;;;;14.12;37.98;99904.16;4960097;28;20122;-84
2022/05/08 04:55:22;;;;;;;18.83;6.37;;;;;;;14.43;37.13;99900.44;4943929;28;20043;-82
2022/05/08 04:57:49;;;;;;;15.27;5.95;;;;;;;14.66;36.87;99912.91;4978513;28;20055;-81
2022/05/08 05:00:16;;;;;;;15.60;6.00;;;;;;;14.74;36.25;99903.84;4959034;28;20525;-86
2022/05/08 05:02:44;;;;;;;10.82;6.07;;;;;;;14.88;36.39;99905.63;4976860;28;20087;-84
2022/05/08 05:05:10;;;;;;;12.68;5.55;;;;;;;14.90;36.08;99906.06;4976721;28;20054;-82
2022/05/08 05:07:40;;;;;;;13.73;5.80;;;;;;;14.89;35.91;99893.47;4977214;28;20054;-83
2022/05/08 05:10:12;;;;;;;14.00;7.05;;;;;;;14.95;36.29;99897.66;4959591;28;20047;-83
2022/05/08 05:12:45;;;;;;;16.88;5.85;;;;;;;14.93;36.10;99892.50;4978512;28;20042;-83
2022/05/08 05:15:12;;;;;;;20.53;5.47;;;;;;;14.96;36.99;99894.56;4978415;28;20095;-84
2022/05/08 05:17:44;;;;;;;11.40;5.57;;;;;;;14.96;36.37;99883.56;4981058;28;20050;-84
2022/05/08 05:20:11;;;;;;;13.93;5.88;;;;;;;14.90;36.36;99875.78;4987783;28;20065;-84
2022/05/08 05:22:38;;;;;;;;;;;;;;;15.07;36.40;99897.78;5000251;28;20042;-84
2022/05/08 05:25:07;;;;;;;14.43;6.13;;;;;;;15.16;36.92;99903.25;5001894;28;19953;-83
2022/05/08 05:27:33;;;;;;;16.47;5.97;;;;;;;15.11;36.43;99897.94;4997929;28;20049;-84
2022/05/08 05:29:59;;;;;;;16.48;5.72;;;;;;;14.95;36.61;99886.66;4983430;28;20281;-84
2022/05/08 05:32:25;;;;;;;19.20;6.32;;;;;;;15.04;36.76;99890.19;4980249;28;20138;-79
2022/05/08 05:34:51;;;;;;;14.10;5.63;;;;;;;15.11;36.05;99896.00;4996257;28;20034;-83
2022/05/08 05:37:18;;;;;;;17.20;5.82;;;;;;;15.24;36.81;99888.66;5001708;28;20385;-82
2022/05/08 05:39:45;;;;;;;;;;;;;;;15.46;36.64;99893.09;4999257;28;20050;-83
2022/05/08 05:42:11;;;;;;;11.95;5.45;;;;;;;15.51;35.77;99870.88;4996703;28;20021;-80
2022/05/08 05:44:39;;;;;;;9.68;5.72;;;;;;;15.60;35.44;99868.06;5002579;28;20038;-82
2022/05/08 05:49:54;;;;;;;19.65;6.30;;;;;;;15.78;36.15;99855.00;4997918;28;20531;-80
2022/05/08 05:52:28;;;;;;;14.48;5.78;;;;;;;16.13;35.81;99889.47;4996805;28;20109;-80
2022/05/08 05:54:59;;;;;;;31.95;6.18;;;;;;;16.39;34.79;99867.19;4964690;28;20053;-80
2022/05/08 05:57:25;;;;;;;16.95;6.13;;;;;;;16.60;34.75;99842.31;4997146;28;20526;-81
2022/05/08 05:59:51;;;;;;;14.25;6.32;;;;;;;16.84;34.32;99851.84;4997821;28;20042;-82
2022/05/08 06:02:22;;;;;;;11.88;6.05;;;;;;;16.98;34.13;99857.84;4985797;28;20053;-85
2022/05/08 06:04:48;;;;;;;16.02;6.03;;;;;;;16.87;33.89;99832.63;4982675;28;20522;-84
2022/05/08 06:07:14;;;;;;;18.58;6.00;;;;;;;17.09;33.68;99863.75;4969910;28;20042;-83
2022/05/08 06:09:41;;;;;;;20.02;6.40;;;;;;;17.04;33.90;99837.13;4982251;28;20074;-84
2022/05/08 06:12:08;;;;;;;12.65;6.18;;;;;;;17.09;33.81;99847.97;4984993;28;20038;-81
2022/05/08 06:14:36;;;;;;;18.42;6.60;;;;;;;17.25;34.36;99853.63;4987781;28;20081;-84
2022/05/08 06:17:03;;;;;;;;;;;;;;;17.40;33.53;99860.44;4997049;28;20503;-82
2022/05/08 06:19:31;;;;;;;17.77;6.50;;;;;;;17.58;34.00;99845.22;5001173;28;19933;-81
2022/05/08 06:22:02;;;;;;;14.63;6.07;;;;;;;17.77;33.03;99846.59;4918336;28;20144;-85
2022/05/08 06:24:31;;;;;;;16.15;7.30;;;;;;;17.68;33.15;99829.28;4986127;28;20050;-81
2022/05/08 06:27:02;;;;;;;20.90;7.60;;;;;;;17.86;33.28;99835.41;5002538;28;20050;-86
2022/05/08 06:29:28;;;;;;;;;;;;;;;17.97;32.59;99842.06;4966247;28;20466;-80
2022/05/08 06:31:54;;;;;;;17.98;6.90;;;;;;;18.02;33.11;99837.09;4973225;28;19932;-80
2022/05/08 06:34:23;;;;;;;15.98;6.68;;;;;;;18.12;33.04;99830.28;4994869;28;20094;-80
2022/05/08 06:36:52;;;;;;;21.25;6.70;;;;;;;17.92;32.77;99782.28;4995243;28;20061;-81
2022/05/08 06:39:37;;;;;;;18.75;7.32;;;;;;;18.22;32.45;99817.91;4973449;28;20078;-80
2022/05/08 06:42:26;;;;;;;18.30;8.33;;;;;;;18.35;32.24;99841.59;4948767;28;20050;-86
2022/05/08 06:45:05;;;;;;;16.65;8.13;;;;;;;18.16;32.45;99819.31;4945407;28;20129;-86
2022/05/08 06:47:37;;;;;;;26.23;8.48;;;;;;;18.41;32.29;99848.50;4980374;28;20062;-85
2022/05/08 06:50:49;;;;;;;15.52;7.38;;;;;;;18.53;32.27;99839.31;4969471;28;20062;-85
2022/05/08 06:56:20;;;;;;;24.15;7.45;;;;;;;18.36;31.51;99840.44;4975240;28;20065;-85
2022/05/08 07:01:55;;;;;;;26.67;7.07;;;;;;;18.24;32.04;99846.81;4996564;28;20570;-85
2022/05/08 07:04:21;;;;;;;62.25;11.70;;;;;;;18.17;31.83;99843.03;5001824;28;20110;-84
2022/05/08 07:06:47;;;;;;;36.75;8.18;;;;;;;18.12;31.88;99829.47;4997219;28;20038;-86
2022/05/08 07:09:18;;;;;;;25.77;9.40;;;;;;;18.20;32.09;99836.81;4984184;28;20078;-87
2022/05/08 07:11:55;;;;;;;26.08;10.27;;;;;;;18.28;32.46;99835.88;4967249;28;20407;-87
2022/05/08 07:14:35;;;;;;;28.63;7.70;;;;;;;18.19;32.04;99846.28;4970247;28;20514;-84
2022/05/08 07:17:24;;;;;;;19.40;7.85;;;;;;;18.11;32.04;99844.44;4964810;28;20042;-81
2022/05/08 07:19:51;;;;;;;18.45;7.15;;;;;;;18.07;32.21;99831.31;4986405;28;20130;-83
2022/05/08 07:22:18;;;;;;;22.98;8.13;;;;;;;18.12;32.24;99835.81;4983683;28;20050;-85
2022/05/08 07:24:44;;;;;;;17.27;8.35;;;;;;;17.96;32.32;99799.78;4997508;28;20062;-85
2022/05/08 07:27:11;;;;;;;13.87;6.60;;;;;;;17.95;31.92;99798.16;4982818;23;20058;-84
2022/05/08 07:29:41;;;;;;;15.27;7.45;;;;;;;18.10;31.88;99810.44;4980246;28;20286;-86
2022/05/08 07:32:13;;;;;;;26.17;7.30;;;;;;;18.27;32.03;99820.41;4986511;28;20058;-85
2022/05/08 07:37:33;;;;;;;18.80;6.03;;;;;;;18.54;31.62;99818.78;4987014;28;20038;-82
2022/05/08 07:40:00;;;;;;;14.35;6.18;;;;;;;18.72;32.24;99828.41;4987848;28;20053;-84
2022/05/08 07:42:26;;;;;;;17.13;6.20;;;;;;;18.76;31.18;99821.00;4996624;28;20038;-82
2022/05/08 07:44:52;;;;;;;16.30;6.43;;;;;;;18.70;31.35;99810.50;4982675;28;20065;-86
2022/05/08 07:47:30;;;;;;;13.10;6.22;;;;;;;18.75;31.45;99815.81;4983739;28;20096;-88
2022/05/08 07:49:57;;;;;;;17.50;6.25;;;;;;;18.68;31.62;99790.69;4979679;28;20067;-82
2022/05/08 07:52:24;;;;;;;13.73;5.97;;;;;;;18.64;31.67;99784.22;4961879;28;20050;-80
2022/05/08 07:54:51;;;;;;;12.45;5.72;;;;;;;18.95;31.53;99806.44;4997707;28;20042;-83
2022/05/08 07:57:17;;;;;;;15.95;6.50;;;;;;;18.84;30.86;99810.91;4995982;28;20084;-82
2022/05/08 07:59:43;;;;;;;21.27;6.67;;;;;;;18.69;31.21;99782.00;4978819;28;20050;-86
2022/05/08 08:02:10;;;;;;;15.83;6.53;;;;;;;18.94;31.47;99804.00;5001923;28;20426;-83
2022/05/08 08:04:36;;;;;;;20.88;7.40;;;;;;;18.98;31.14;99802.16;4966734;28;20042;-87
2022/05/08 08:07:03;;;;;;;26.83;6.88;;;;;;;18.84;30.48;99783.22;4985157;28;20125;-83
2022/05/08 08:11:05;;;;;;;17.92;7.25;;;;;;;18.96;30.59;99805.28;4944574;29;20540;-86
2022/05/08 08:17:26;;;;;;;29.05;7.45;;;;;;;18.91;29.26;99752.91;4947687;29;20028;-83
2022/05/08 08:20:20;;;;;;;65.30;8.75;;;;;;;19.22;29.60;99795.63;4926461;29;20043;-86
2022/05/08 08:25:55;;;;;;;20.58;7.80;;;;;;;18.98;29.30;99766.94;5172397;23;20080;-84
2022/05/08 08:28:42;;;;;;;15.73;7.53;;;;;;;18.68;28.78;99694.56;4994244;28;20495;-86
2022/05/08 08:31:34;;;;;;;21.70;7.65;;;;;;;18.88;28.96;99742.56;5025628;28;20034;-85
2022/05/08 08:34:02;;;;;;;29.10;8.23;;;;;;;19.18;29.24;99775.34;4986652;28;20080;-81
2022/05/08 08:36:29;;;;;;;18.90;8.67;;;;;;;19.16;29.42;99774.88;4996711;28;20065;-83
2022/05/08 08:38:57;;;;;;;21.73;8.33;;;;;;;19.11;29.66;99769.63;4982489;28;20041;-80
2022/05/08 08:41:42;;;;;;;26.48;9.05;;;;;;;19.07;29.51;99777.03;4998114;28;20820;-82
2022/05/08 08:49:52;;;;;;;27.52;8.80;;;;;;;19.30;29.27;99779.94;5023874;28;20038;-88
2022/05/08 08:52:25;;;;;;;19.75;8.57;;;;;;;19.14;29.02;99777.19;5000999;28;20038;-86
2022/05/08 08:55:53;;;;;;;24.15;9.90;;;;;;;19.24;29.25;99771.13;4963783;23;20123;-84
2022/05/08 08:58:21;;;;;;;21.98;8.55;;;;;;;19.28;29.27;99752.59;4981125;28;20038;-87
2022/05/08 09:00:50;;;;;;;19.38;8.93;;;;;;;19.20;28.96;99773.00;4978930;28;20042;-85
2022/05/08 09:03:29;;;;;;;17.85;9.02;;;;;;;19.21;28.97;99769.06;4962824;28;20049;-85
2022/05/08 09:05:58;;;;;;;25.23;9.48;;;;;;;19.16;29.19;99767.38;4980040;28;20130;-84
2022/05/08 09:08:37;;;;;;;26.83;10.90;;;;;;;19.16;28.72;99755.47;4976268;28;20127;-83
2022/05/08 09:11:03;;;;;;;17.40;8.52;;;;;;;19.33;28.69;99759.81;4961131;28;20043;-85
2022/05/08 09:13:31;;;;;;;26.60;9.57;;;;;;;19.43;29.25;99765.59;4979786;28;20106;-84
2022/05/08 09:16:06;;;;;;;23.75;9.45;;;;;;;19.41;28.93;99742.22;4993897;28;20042;-84
2022/05/08 09:18:48;;;;;;;19.52;9.48;;;;;;;19.71;28.78;99761.91;4961924;28;20043;-84
2022/05/08 09:24:13;;;;;;;22.83;9.43;;;;;;;19.85;28.72;99745.56;4977599;28;20057;-84
2022/05/08 09:26:40;;;;;;;23.63;9.13;;;;;;;19.91;28.64;99740.53;4979499;28;20047;-86
2022/05/08 09:29:07;;;;;;;15.18;6.93;;;;;;;19.70;28.50;99751.97;4978304;28;20500;-83
2022/05/08 09:31:42;;;;;;;128.35;12.00;;;;;;;19.57;29.01;99747.69;4978005;28;20039;-86
2022/05/08 09:34:09;;;;;;;20.75;8.07;;;;;;;19.49;28.72;99741.97;4979253;28;20046;-84
2022/05/08 09:36:35;;;;;;;20.30;8.52;;;;;;;19.57;29.06;99748.50;4979858;28;20535;-84
2022/05/08 09:39:06;;;;;;;24.08;9.13;;;;;;;;;;4961562;28;20121;-85
2022/05/08 09:41:38;;;;;;;28.17;7.70;;;;;;;19.39;28.23;99694.63;4981475;28;20046;-83
2022/05/08 09:44:13;;;;;;;21.90;9.18;;;;;;;19.80;29.03;99733.94;4992888;28;20042;-86
2022/05/08 09:46:44;;;;;;;26.42;8.93;;;;;;;19.74;29.79;99714.03;4978776;28;20558;-85
2022/05/08 09:49:21;;;;;;;27.17;8.32;;;;;;;19.61;28.51;99729.16;4979947;28;20508;-83
2022/05/08 09:51:47;;;;;;;;;;;;;;;19.66;29.74;99731.66;4981226;28;20054;-84
2022/05/08 09:54:18;;;;;;;28.95;9.05;;;;;;;19.71;29.39;99725.84;4979849;28;19948;-85
2022/05/08 09:56:46;;;;;;;25.42;8.02;;;;;;;19.83;28.55;99717.38;4975587;28;20531;-85
2022/05/08 09:59:16;;;;;;;29.63;13.60;;;;;;;20.19;28.26;99723.63;4979826;28;20049;-84
2022/05/08 10:01:43;;;;;;;32.08;9.77;;;;;;;20.24;28.09;99708.66;4976106;28;20125;-83
2022/05/08 10:04:09;;;;;;;;;;;;;;;20.24;28.16;99716.97;4978508;28;20500;-85
2022/05/08 10:06:41;;;;;;;20.52;7.22;;;;;;;20.07;27.84;99694.06;4961943;28;19922;-82
2022/05/08 10:14:53;;;;;;;31.50;7.85;;;;;;;20.67;27.71;99687.22;4975843;28;20101;-83
2022/05/08 10:17:29;;;;;;;23.20;7.20;;;;;;;20.56;27.74;99664.78;4961918;28;20070;-86
2022/05/08 10:19:56;;;;;;;30.58;8.45;;;;;;;20.43;27.46;99647.50;4979082;28;20047;-86
2022/05/08 10:22:23;;;;;;;32.83;8.50;;;;;;;20.57;27.98;99672.78;4980116;28;20054;-82
2022/05/08 10:24:57;;;;;;;;;;;;;;;20.79;28.29;99667.53;4983803;28;20074;-86
2022/05/08 10:27:33;;;;;;;44.92;8.18;;;;;;;21.05;28.01;99663.97;4994125;28;19922;-82
2022/05/08 10:30:01;;;;;;;26.65;7.25;;;;;;;21.30;27.07;99659.56;4978835;28;20051;-82
2022/05/08 10:32:33;;;;;;;65.22;8.18;;;;;;;21.24;26.31;99655.50;4985152;28;20051;-82
2022/05/08 10:35:20;;;;;;;30.13;8.77;;;;;;;21.09;26.51;99625.91;4965026;28;20045;-88
2022/05/08 10:37:59;;;;;;;43.92;8.43;;;;;;;21.19;26.47;99649.47;4982298;28;20047;-85
2022/05/08 10:40:25;;;;;;;12.05;7.07;;;;;;;21.37;26.86;99627.50;4960615;28;20051;-87
2022/05/08 10:42:55;;;;;;;70.38;10.10;;;;;;;21.35;26.61;99630.66;4964631;28;20050;-87
2022/05/08 10:45:34;;;;;;;30.25;7.63;;;;;;;21.51;26.73;99636.00;4982724;28;20054;-82
2022/05/08 10:48:08;;;;;;;49.60;8.43;;;;;;;21.38;26.85;99626.31;4978720;28;20043;-87
2022/05/08 10:50:40;;;;;;;36.90;8.05;;;;;;;21.70;26.61;99635.06;4980940;28;20051;-81
2022/05/08 10:53:38;;;;;;;27.45;7.53;;;;;;;22.11;26.41;99608.03;4964339;28;20043;-88
2022/05/08 10:56:16;;;;;;;38.72;7.05;;;;;;;21.89;26.61;99575.63;4980238;28;20142;-85
2022/05/08 10:59:14;;;;;;;37.50;8.75;;;;;;;21.78;26.04;99611.66;4977162;28;20058;-86
2022/05/08 11:01:50;;;;;;;34.85;7.43;;;;;;;21.54;26.70;99602.66;4963571;29;20043;-86
2022/05/08 11:04:17;;;;;;;19.70;8.02;;;;;;;21.44;26.75;99597.78;4967893;28;20385;-84
2022/05/08 11:07:08;;;;;;;26.80;7.20;;;;;;;20.96;27.07;99528.06;4989840;28;20124;-85
2022/05/08 11:09:48;;;;;;;24.27;7.65;;;;;;;21.35;27.11;99595.28;4969687;28;20058;-84
2022/05/08 11:12:37;;;;;;;23.48;7.38;;;;;;;21.68;27.49;99602.03;4974421;28;20094;-80
2022/05/08 11:15:13;;;;;;;21.95;7.45;;;;;;;21.22;27.05;99571.66;4970705;28;20129;-77
2022/05/08 11:17:42;;;;;;;19.52;7.78;;;;;;;21.18;26.71;99592.25;4973085;28;20051;-81
2022/05/08 11:20:15;;;;;;;22.33;8.02;;;;;;;21.27;27.33;99604.69;4973040;28;20035;-77
2022/05/08 11:23:06;;;;;;;20.65;7.28;;;;;;;21.26;27.36;99599.53;4974315;28;20133;-79
2022/05/08 11:25:40;;;;;;;33.22;6.47;;;;;;;21.08;27.25;99593.72;4964501;28;20046;-79
2022/05/08 11:28:24;;;;;;;13.95;6.60;;;;;;;21.04;27.38;99579.00;4973736;28;20081;-77
2022/05/08 11:30:55;;;;;;;22.58;6.70;;;;;;;21.07;27.87;99597.69;4972439;28;20062;-80
2022/05/08 11:36:38;;;;;;;17.00;6.95;;;;;;;21.37;28.26;99596.91;4988371;28;20057;-79
2022/05/08 11:39:21;;;;;;;15.02;6.85;;;;;;;21.58;27.48;99589.59;4974263;28;20512;-77
2022/05/08 11:41:54;;;;;;;15.75;6.68;;;;;;;21.57;27.01;99576.88;4973251;28;20051;-80
2022/05/08 11:44:25;;;;;;;18.60;7.53;;;;;;;21.58;27.00;99595.16;4973895;28;20043;-79
2022/05/08 11:46:57;;;;;;;16.60;6.93;;;;;;;21.46;28.44;99573.19;4972608;28;20039;-80
2022/05/08 11:49:29;;;;;;;15.63;6.53;;;;;;;21.31;27.33;99588.06;4971874;28;20081;-81
2022/05/08 11:52:06;;;;;;;18.42;7.22;;;;;;;21.48;27.95;99559.69;4968938;28;20026;-79
2022/05/08 11:54:40;;;;;;;18.23;7.10;;;;;;;21.56;27.36;99566.94;4969136;28;20081;-78
2022/05/08 11:57:11;;;;;;;13.73;5.93;;;;;;;21.73;27.40;99567.50;4986177;28;20039;-78
2022/05/08 11:59:39;;;;;;;22.33;6.00;;;;;;;21.72;28.68;99568.66;4974211;28;20133;-78
2022/05/08 12:02:41;;;;;;;20.77;5.80;;;;;;;21.51;27.31;99572.03;4973239;28;20035;-78
2022/05/08 12:05:29;;;;;;;20.75;5.95;;;;;;;21.32;27.60;99571.00;4975066;28;20504;-79
2022/05/08 12:07:56;;;;;;;58.50;8.90;;;;;;;21.27;27.77;99564.97;4973013;28;20046;-79
2022/05/08 12:10:41;;;;;;;13.18;6.75;;;;;;;21.41;28.39;99569.94;4968755;28;20129;-79
2022/05/08 12:13:12;;;;;;;30.75;6.13;;;;;;;21.56;30.77;99543.88;4974186;28;20034;-81
2022/05/08 12:16:17;;;;;;;17.40;6.30;;;;;;;21.51;27.66;99549.78;4975105;28;20059;-79
2022/05/08 12:19:10;;;;;;;12.77;6.35;;;;;;;21.54;27.77;99563.72;4971718;28;20427;-78
2022/05/08 12:21:37;;;;;;;57.92;7.32;;;;;;;21.19;27.92;99518.78;4976638;28;20061;-80
2022/05/08 12:24:13;;;;;;;20.55;6.53;;;;;;;21.21;28.19;99535.91;4972168;28;20050;-81
2022/05/08 12:26:41;;;;;;;17.80;6.80;;;;;;;21.23;29.25;99541.91;4974767;28;20114;-81
2022/05/08 12:29:20;;;;;;;15.00;6.65;;;;;;;21.20;28.25;99539.88;4972895;28;20125;-82
2022/05/08 12:31:51;;;;;;;17.02;6.68;;;;;;;21.14;28.34;99524.72;4972430;28;20085;-82
2022/05/08 12:34:27;;;;;;;18.48;6.45;;;;;;;20.99;28.17;99518.97;4974526;28;20051;-82
2022/05/08 12:36:58;;;;;;;14.23;6.95;;;;;;;21.03;30.60;99530.94;4971529;28;20039;-81
2022/05/08 12:39:25;;;;;;;15.52;6.15;;;;;;;20.70;28.55;99515.03;4992285;28;20089;-81
2022/05/08 12:41:56;;;;;;;15.18;6.72;;;;;;;20.69;28.50;99496.75;4992016;28;20035;-80
2022/05/08 12:44:40;;;;;;;18.05;6.65;;;;;;;20.78;29.04;99508.38;4976127;28;20042;-79
2022/05/08 12:47:08;;;;;;;27.20;6.32;;;;;;;20.68;28.40;99514.59;4978217;28;20531;-79
2022/05/08 12:49:37;;;;;;;18.30;7.85;;;;;;;20.66;28.73;99530.81;4975423;28;20047;-80
2022/05/08 12:52:06;;;;;;;20.83;6.38;;;;;;;20.72;28.39;99520.19;4975950;28;20077;-81
2022/05/08 12:54:44;;;;;;;26.90;7.60;;;;;;;20.59;28.56;99525.97;4975768;28;20089;-78
2022/05/08 13:00:13;;;;;;;12.73;5.82;;;;;;;20.37;29.51;99524.84;4976903;28;20042;-78
2022/05/08 13:02:40;;;;;;;18.63;6.95;;;;;;;20.27;28.76;99519.13;4993048;28;20034;-79
2022/05/08 13:05:08;;;;;;;20.65;7.28;;;;;;;20.20;28.94;99503.16;4976154;28;20050;-78
2022/05/08 13:07:35;;;;;;;17.15;7.38;;;;;;;20.30;30.02;99513.63;4975551;28;20102;-83
2022/05/08 13:10:02;;;;;;;17.25;7.35;;;;;;;20.12;29.10;99512.53;4974256;28;20130;-81
2022/05/08 13:12:29;;;;;;;15.07;7.18;;;;;;;20.16;29.29;99516.16;4981502;28;20120;-81
2022/05/08 13:15:17;;;;;;;12.88;6.57;;;;;;;20.08;29.02;99515.25;4980627;28;20467;-82
2022/05/08 13:17:43;;;;;;;17.17;7.15;;;;;;;19.91;29.34;99499.13;4977283;28;20043;-79
2022/05/08 13:20:10;;;;;;;17.23;6.75;;;;;;;19.90;29.71;99523.31;4976301;28;20066;-86
2022/05/08 13:22:41;;;;;;;26.88;10.68;;;;;;;19.78;29.91;99511.59;4978369;28;20039;-86
2022/05/08 13:25:13;;;;;;;18.67;6.50;;;;;;;19.74;30.26;99539.28;4975139;28;20528;-83
2022/05/08 13:28:04;;;;;;;80.30;12.25;;;;;;;19.40;36.19;99577.84;4968357;28;20101;-87
2022/05/08 13:30:51;;;;;;;30.63;8.27;;;;;;;18.97;39.41;99573.34;4881703;29;20072;-82
2022/05/08 13:33:30;;;;;;;22.60;8.48;;;;;;;18.75;40.91;99581.22;4903223;29;20053;-87
2022/05/08 13:36:42;;;;;;;24.05;9.65;;;;;;;18.52;42.85;99583.00;4886487;29;20076;-90
2022/05/08 13:39:13;;;;;;;25.17;9.23;;;;;;;18.30;43.29;99571.41;4900071;29;20048;-83
2022/05/08 13:41:43;;;;;;;41.08;9.98;;;;;;;18.21;42.83;99567.22;4884246;29;20060;-80
2022/05/08 13:44:16;;;;;;;27.15;9.85;;;;;;;17.99;43.65;99560.38;4900411;29;20409;-88
2022/05/08 13:47:33;;;;;;;27.95;9.82;;;;;;;17.94;44.53;99582.75;4888825;29;20052;-84
2022/05/08 13:50:06;;;;;;;26.88;9.95;;;;;;;17.80;47.29;99588.72;4871713;29;20061;-86
2022/05/08 13:52:46;;;;;;;21.92;9.85;;;;;;;17.61;47.97;99581.06;4870929;29;20076;-81
2022/05/08 13:55:17;;;;;;;31.50;10.00;;;;;;;17.31;48.95;99553.81;4869021;29;20107;-83
2022/05/08 13:57:44;;;;;;;22.73;9.82;;;;;;;17.35;50.17;99581.53;4868036;29;20434;-86
2022/05/08 14:00:14;;;;;;;;;;;;;;;17.12;50.14;99586.81;4846751;29;20136;-80
2022/05/08 14:03:09;;;;;;;22.25;10.85;;;;;;;16.96;51.97;99578.47;4860414;29;20409;-82
2022/05/08 14:06:19;;;;;;;20.25;10.52;;;;;;;16.82;52.46;99575.25;4856973;29;20522;-80
2022/05/08 14:09:10;;;;;;;19.95;9.70;;;;;;;16.72;52.99;99586.75;4934626;29;20099;-79
2022/05/08 14:11:40;;;;;;;23.02;11.95;;;;;;;16.53;53.33;99573.56;4934474;29;20103;-87
2022/05/08 14:14:11;;;;;;;28.23;13.50;;;;;;;16.50;54.26;99586.09;4937443;29;20048;-80
2022/05/08 14:17:07;;;;;;;40.17;20.00;;;;;;;16.32;55.53;99557.09;4921443;29;20138;-80
2022/05/08 14:19:35;;;;;;;47.22;26.63;;;;;;;16.19;55.66;99554.38;4937443;29;20226;-80
2022/05/08 14:25:57;;;;;;;26.30;14.73;;;;;;;16.26;55.95;99569.53;4921436;29;20073;-83
2022/05/08 14:28:55;;;;;;;28.33;11.82;;;;;;;16.25;55.25;99565.16;4978051;28;20042;-83
2022/05/08 14:37:15;;;;;;;42.88;24.65;;;;;;;16.34;53.06;99565.84;4969553;28;20051;-82
2022/05/08 14:39:47;;;;;;;;;;;;;;;16.38;52.42;99552.97;4941567;28;20039;-82
2022/05/08 14:42:26;;;;;;;25.63;12.95;;;;;;;16.37;51.52;99554.13;4976426;28;20013;-80
2022/05/08 14:45:26;;;;;;;24.33;12.23;;;;;;;16.35;52.05;99556.44;4978742;28;20093;-88
2022/05/08 14:48:05;;;;;;;27.70;14.48;;;;;;;16.41;51.16;99561.38;4978548;28;20047;-85
2022/05/08 14:50:39;;;;;;;25.45;15.18;;;;;;;16.42;51.39;99549.19;4993689;28;20046;-79
2022/05/08 14:53:12;;;;;;;21.27;11.38;;;;;;;16.43;50.96;99539.75;4977604;28;20034;-86
2022/05/08 14:55:53;;;;;;;25.17;13.02;;;;;;;16.59;51.31;99561.94;4977038;28;20054;-82
2022/05/08 14:58:19;;;;;;;23.58;13.70;;;;;;;16.53;51.11;99535.72;4979331;28;20062;-85
2022/05/08 15:00:52;;;;;;;18.05;11.75;;;;;;;16.76;51.00;99549.06;4977145;28;20130;-84
2022/05/08 15:03:20;;;;;;;15.68;11.35;;;;;;;16.78;51.19;99546.75;4973482;28;20587;-82
2022/05/08 15:06:14;;;;;;;23.90;10.63;;;;;;;16.77;51.87;99543.19;4978116;28;20066;-80
2022/05/08 15:08:50;;;;;;;25.98;17.73;;;;;;;16.77;52.27;99545.13;4977788;28;20031;-85
2022/05/08 15:11:27;;;;;;;19.42;9.40;;;;;;;16.70;52.54;99534.66;4979105;28;20424;-83
2022/05/08 15:14:10;;;;;;;23.08;9.73;;;;;;;16.65;53.08;99530.19;4979906;28;20041;-86
2022/05/08 15:16:42;;;;;;;21.00;11.88;;;;;;;16.71;53.20;99535.44;4979116;28;20373;-82
2022/05/08 15:19:20;;;;;;;18.45;10.43;;;;;;;16.54;53.68;99522.72;4976509;28;20389;-85